KUGN/UGN METAR and TAF weather

Enter ICAO airport designator
Station Type Date Time Source
KUGN METAR 2020/03/28 08:55 UTC NOAA

KUGN 280855Z AUTO 12007KT 3SM -RA BR OVC002 06/06 A2966 RMK AO2 SLP048 P0010 60068 T00610056 58039


Station Type Date Time Source
KUGN Decoded METAR 2020/03/28 08:55 UTC NOAA

CHICAGO/WAUKEGAN REGIONAL, IL, United States (KUGN) 42-25N 087-52W
Mar 28, 2020 - 04:55 AM EDT / 2020.03.28 0855 UTC
Wind: from the ESE (120 degrees) at 8 MPH (7 KT):0
Visibility: 3 mile(s):0
Sky conditions: overcast
Weather: light rain; mist
Precipitation last hour: 0.10 inches
Temperature: 43.0 F (6.1 C)
Dew Point: 42.1 F (5.6 C)
Relative Humidity: 96%
Pressure (altimeter): 29.66 in. Hg (1004 hPa)
Pressure tendency: 0.12 inches (3.9 hPa) lower than three hours ago
ob: KUGN 280855Z AUTO 12007KT 3SM -RA BR OVC002 06/06 A2966 RMK AO2 SLP048 P0010 60068 T00610056 58039
cycle: 9

Station Type Date Time Source
KUGN TAF UTC NOAA

Error!

Example: see airport list